Time;durP1;ratioP1;P1;durP2;ratioP2;P2;SDS_P1;SDS_P2;PMS_P1;PMS_P2;Temp;Humidity;BMP_temperature;BMP_pressure;BME280_temperature;BME280_humidity;BME280_pressure;Samples;Min_cycle;Max_cycle;Signal;HPM_P1;HPM_P2
2022/01/08 00:03:30;;;;;;;0.30;0.30;;;;;;;;;;20996966;28;20209;-74
2022/01/08 00:13:32;;;;;;;0.40;0.40;;;;;;;;;;20996405;28;20217;-74
2022/01/08 00:23:34;;;;;;;0.40;0.40;;;;;;;;;;20992838;28;20239;-74
2022/01/08 00:33:39;;;;;;;0.30;0.30;;;2.50;99.90;;;;;;20976521;28;20229;-74
2022/01/08 00:43:41;;;;;;;0.63;0.57;;;;;;;;;;20993616;28;20205;-74
2022/01/08 00:53:43;;;;;;;0.63;0.53;;;;;;;;;;20991738;28;20205;-74
2022/01/08 01:03:45;;;;;;;0.50;0.50;;;;;;;;;;20992577;28;20582;-75
2022/01/08 01:13:47;;;;;;;0.70;0.67;;;;;;;;;;20992219;28;20318;-74
2022/01/08 01:23:50;;;;;;;0.10;0.10;;;;;;;;;;20989948;28;20221;-74
2022/01/08 01:54:21;;;;;;;0.17;0.17;;;;;;;;;;20988202;28;20628;-74
2022/01/08 02:04:22;;;;;;;0.37;0.37;;;;;;;;;;20987354;28;20329;-74
2022/01/08 02:14:24;;;;;;;1.77;0.60;;;;;;;;;;20984132;28;20695;-74
2022/01/08 02:24:26;;;;;;;0.37;0.30;;;2.70;99.90;;;;;;20986557;28;20274;-74
2022/01/08 02:34:29;;;;;;;0.20;0.20;;;;;;;;;;20985591;28;20267;-74
2022/01/08 02:44:31;;;;;;;0.30;0.30;;;;;;;;;;21004097;28;20607;-74
2022/01/08 02:54:33;;;;;;;0.20;0.20;;;;;;;;;;21002791;28;20213;-74
2022/01/08 03:04:36;;;;;;;0.10;0.10;;;;;;;;;;21001607;28;20262;-74
2022/01/08 03:14:38;;;;;;;0.20;0.20;;;;;;;;;;21000008;28;20229;-74
2022/01/08 03:24:40;;;;;;;0.20;0.20;;;;;;;;;;21001973;28;20702;-74
2022/01/08 03:34:42;;;;;;;0.20;0.20;;;;;;;;;;20997338;28;20266;-75
2022/01/08 03:44:44;;;;;;;0.23;0.23;;;2.50;99.90;;;;;;20996563;28;20250;-75
2022/01/08 03:54:46;;;;;;;0.10;0.10;;;;;;;;;;20963295;28;20231;-74
2022/01/08 04:04:48;;;;;;;0.20;0.20;;;;;;;;;;20998532;28;20185;-74
2022/01/08 04:27:15;;;;;;;0.10;0.10;;;;;;;;;;21330801;22;20590;-70
2022/01/08 04:37:17;;;;;;;0.20;0.20;;;;;;;;;;21100180;28;20269;-70
2022/01/08 04:47:19;;;;;;;0.10;0.10;;;;;;;;;;21115545;28;20615;-70
2022/01/08 04:57:21;;;;;;;0.20;0.20;;;2.50;99.90;;;;;;21109165;28;20265;-71
2022/01/08 05:07:23;;;;;;;0.10;0.10;;;;;;;;;;21124251;28;20748;-71
2022/01/08 05:17:28;;;;;;;0.20;0.20;;;;;;;;;;21107601;28;20269;-70
2022/01/08 05:27:29;;;;;;;0.10;0.10;;;;;;;;;;21107338;28;20216;-71
2022/01/08 05:37:31;;;;;;;0.40;0.30;;;2.50;99.90;;;;;;21072247;28;20333;-71
2022/01/08 05:47:34;;;;;;;0.50;0.20;;;2.10;99.90;;;;;;21049401;28;20668;-70
2022/01/08 05:57:36;;;;;;;0.20;0.20;;;;;;;;;;21065586;28;20234;-70
2022/01/08 06:07:38;;;;;;;0.43;0.37;;;2.40;99.90;;;;;;21047442;28;20216;-71
2022/01/08 06:17:40;;;;;;;0.23;0.23;;;;;;;;;;21046901;28;20204;-70
2022/01/08 06:27:42;;;;;;;0.20;0.20;;;;;;;;;;21045958;28;20216;-71
2022/01/08 06:37:44;;;;;;;0.10;0.10;;;;;;;;;;21044983;28;20667;-70
2022/01/08 06:47:46;;;;;;;0.40;0.30;;;;;;;;;;21059500;28;20293;-71
2022/01/08 06:57:48;;;;;;;0.23;0.23;;;;;;;;;;21067844;28;20281;-70
2022/01/08 07:07:50;;;;;;;0.20;0.20;;;;;;;;;;21049575;28;20278;-71
2022/01/08 07:17:52;;;;;;;0.30;0.30;;;;;;;;;;21043549;28;20220;-71
2022/01/08 07:27:54;;;;;;;0.13;0.13;;;;;;;;;;21049099;28;20691;-70
2022/01/08 07:37:56;;;;;;;2.63;0.20;;;;;;;;;;21040375;28;20216;-70
2022/01/08 07:47:57;;;;;;;1.03;0.40;;;;;;;;;;21039824;28;20228;-70
2022/01/08 07:57:59;;;;;;;0.20;0.20;;;;;;;;;;21039060;28;20725;-71
2022/01/08 08:08:01;;;;;;;0.40;0.40;;;;;;;;;;21067842;28;20258;-70
2022/01/08 08:18:03;;;;;;;0.37;0.33;;;;;;;;;;21038289;28;20451;-70
2022/01/08 08:28:05;;;;;;;0.47;0.47;;;;;;;;;;21037983;28;20220;-70
2022/01/08 08:38:08;;;;;;;0.37;0.30;;;;;;;;;;21077875;28;20212;-70
2022/01/08 08:48:10;;;;;;;0.40;0.30;;;;;;;;;;21037001;28;20204;-70
2022/01/08 08:58:12;;;;;;;2.10;0.33;;;;;;;;;;21053121;28;20229;-70
2022/01/08 09:08:14;;;;;;;0.53;0.50;;;;;;;;;;21043147;28;20640;-70
2022/01/08 09:18:16;;;;;;;1.03;0.37;;;;;;;;;;21068509;28;20238;-70
2022/01/08 09:28:18;;;;;;;1.73;0.63;;;;;;;;;;21050389;28;20297;-70
2022/01/08 09:38:20;;;;;;;0.30;0.30;;;3.00;99.90;;;;;;21048235;28;20576;-70
2022/01/08 09:48:22;;;;;;;0.30;0.30;;;;;;;;;;21078627;28;20216;-70
2022/01/08 09:58:24;;;;;;;1.80;0.80;;;;;;;;;;21051278;28;20212;-70
2022/01/08 10:08:25;;;;;;;0.37;0.37;;;;;;;;;;21064766;28;20266;-70
2022/01/08 10:18:35;;;;;;;0.20;0.20;;;4.00;99.90;;;;;;21047493;28;20736;-71
2022/01/08 10:28:53;;;;;;;1.03;0.93;;;4.30;99.90;;;;;;21062498;28;20301;-70
2022/01/08 10:38:57;;;;;;;0.60;0.40;;;3.80;99.90;;;;;;21127938;22;20265;-72
2022/01/08 10:48:59;;;;;;;0.77;0.70;;;;;;;;;;21069557;28;20695;-73
2022/01/08 10:59:12;;;;;;;0.20;0.17;;;;;;;;;;20989403;28;20229;-73
2022/01/08 11:09:14;;;;;;;0.30;0.30;;;;;;;;;;21003536;28;20602;-74
2022/01/08 11:19:16;;;;;;;3.93;0.90;;;;;;;;;;21062578;28;20220;-73
2022/01/08 11:29:22;;;;;;;0.30;0.30;;;;;;;;;;20995606;28;20255;-72
2022/01/08 11:39:27;;;;;;;0.40;0.40;;;;;;;;;;20981819;28;20255;-72
2022/01/08 11:49:28;;;;;;;0.50;0.40;;;;;;;;;;20998541;28;20278;-72
2022/01/08 11:59:32;;;;;;;0.20;0.20;;;;;;;;;;21016160;28;20212;-74
2022/01/08 12:09:39;;;;;;;0.10;0.10;;;;;;;;;;21010878;28;20235;-73
2022/01/08 12:19:50;;;;;;;0.00;0.00;;;3.60;99.90;;;;;;21000113;28;20209;-73
2022/01/08 12:29:51;;;;;;;0.40;0.33;;;;;;;;;;20986009;28;20686;-73
2022/01/08 12:39:55;;;;;;;0.60;0.40;;;3.50;99.90;;;;;;20983687;28;20259;-72
2022/01/08 12:50:34;;;;;;;0.20;0.20;;;3.80;99.90;;;;;;21002793;28;20232;-72
2022/01/08 13:00:36;;;;;;;0.20;0.20;;;;;;;;;;21002073;28;20617;-72
2022/01/08 13:10:37;;;;;;;0.17;0.17;;;;;;;;;;21000106;28;20243;-73
2022/01/08 13:20:39;;;;;;;0.20;0.20;;;;;;;;;;21025876;28;20207;-72
2022/01/08 13:30:48;;;;;;;0.20;0.20;;;3.60;99.90;;;;;;20996960;28;20266;-73
2022/01/08 13:40:50;;;;;;;0.30;0.20;;;;;;;;;;20977522;28;20221;-73
2022/01/08 13:50:57;;;;;;;0.20;0.20;;;;;;;;;;20977403;28;20228;-73
2022/01/08 14:12:10;;;;;;;0.20;0.20;;;;;;;;;;21061976;28;20592;-68
2022/01/08 14:22:12;;;;;;;0.43;0.40;;;4.70;99.90;;;;;;21027093;28;20235;-68
2022/01/08 14:32:16;;;;;;;0.87;0.30;;;;;;;;;;21025883;28;20201;-67
2022/01/08 14:42:20;;;;;;;0.60;0.60;;;;;;;;;;20960017;28;20624;-67
2022/01/08 14:52:27;;;;;;;0.30;0.20;;;;;;;;;;20955440;28;20217;-67
2022/01/08 15:02:33;;;;;;;0.20;0.20;;;3.50;99.90;;;;;;20973000;28;20295;-67
2022/01/08 15:12:36;;;;;;;0.37;0.30;;;3.60;99.90;;;;;;20998332;28;20225;-67
2022/01/08 15:22:39;;;;;;;14.00;1.10;;;;;;;;;;20979798;28;20221;-67
2022/01/08 15:32:41;;;;;;;0.10;0.10;;;;;;;;;;20948100;28;20566;-67
2022/01/08 15:42:43;;;;;;;0.13;0.10;;;;;;;;;;20946826;28;20205;-67
2022/01/08 15:52:45;;;;;;;0.43;0.33;;;;;;;;;;20962771;28;20247;-67
2022/01/08 16:02:47;;;;;;;0.97;0.70;;;3.60;99.90;;;;;;20961960;28;20221;-68
2022/01/08 16:12:49;;;;;;;0.10;0.10;;;;;;;;;;20961366;28;20205;-68
2022/01/08 16:22:51;;;;;;;0.20;0.20;;;;;;;;;;20960454;28;20210;-67
2022/01/08 16:32:53;;;;;;;0.57;0.30;;;;;;;;;;20958450;22;20285;-83
2022/01/08 16:42:55;;;;;;;0.20;0.20;;;;;;;;;;20827751;28;20231;-80
2022/01/08 16:52:57;;;;;;;0.27;0.27;;;;;;;;;;20788934;28;20562;-80
2022/01/08 17:02:58;;;;;;;0.20;0.20;;;;;;;;;;20817142;28;20246;-81
2022/01/08 17:13:00;;;;;;;0.10;0.10;;;;;;;;;;20808914;28;20230;-80
2022/01/08 17:23:02;;;;;;;0.10;0.10;;;;;;;;;;20790426;28;20696;-80
2022/01/08 17:33:04;;;;;;;0.10;0.10;;;;;;;;;;20789760;28;20355;-80
2022/01/08 17:43:06;;;;;;;0.10;0.10;;;4.40;99.90;;;;;;20775666;28;20376;-79
2022/01/08 17:53:09;;;;;;;0.30;0.30;;;;;;;;;;20820470;28;20222;-81
2022/01/08 18:03:10;;;;;;;0.17;0.17;;;;;;;;;;20795846;28;20226;-80
2022/01/08 18:13:12;;;;;;;0.10;0.10;;;3.00;99.90;;;;;;20822845;28;20287;-82
2022/01/08 18:23:15;;;;;;;1.20;0.30;;;;;;;;;;20786127;28;20215;-81
2022/01/08 18:33:16;;;;;;;0.20;0.20;;;;;;;;;;20814107;28;20296;-80
2022/01/08 18:43:18;;;;;;;0.20;0.20;;;;;;;;;;20825197;28;20219;-80
2022/01/08 18:53:20;;;;;;;0.20;0.20;;;;;;;;;;20804618;28;20234;-80
2022/01/08 19:03:22;;;;;;;0.53;0.40;;;;;;;;;;20820452;28;20292;-80
2022/01/08 19:13:24;;;;;;;0.43;0.43;;;;;;;;;;20807043;28;20222;-81
2022/01/08 19:23:26;;;;;;;1.80;0.97;;;;;;;;;;20790927;28;20688;-80
2022/01/08 19:33:28;;;;;;;0.30;0.30;;;;;;;;;;20815601;28;20226;-83
2022/01/08 19:43:31;;;;;;;0.47;0.30;;;;;;;;;;20826826;28;20276;-81
2022/01/08 19:53:32;;;;;;;0.20;0.20;;;;;;;;;;20814456;28;20222;-81
2022/01/08 20:03:34;;;;;;;0.30;0.30;;;;;;;;;;20826730;28;20756;-81
2022/01/08 20:13:36;;;;;;;0.10;0.10;;;;;;;;;;20806059;28;20296;-80
2022/01/08 20:23:38;;;;;;;0.30;0.30;;;;;;;;;;20833076;28;20269;-80
2022/01/08 20:33:40;;;;;;;0.10;0.10;;;;;;;;;;20828605;28;20308;-79
2022/01/08 20:43:42;;;;;;;1.10;0.80;;;;;;;;;;20826197;28;20227;-79
2022/01/08 20:53:44;;;;;;;1.57;0.43;;;;;;;;;;20827614;28;20260;-80
2022/01/08 21:03:46;;;;;;;0.50;0.40;;;;;;;;;;20822246;28;20219;-80
2022/01/08 21:13:48;;;;;;;0.50;0.30;;;;;;;;;;20827264;28;20226;-80
2022/01/08 21:23:49;;;;;;;0.67;0.40;;;;;;;;;;20776585;28;20215;-80
2022/01/08 21:33:55;;;;;;;0.10;0.10;;;;;;;;;;20824261;28;20234;-79
2022/01/08 21:43:57;;;;;;;0.20;0.20;;;;;;;;;;20778242;28;20649;-80
2022/01/08 21:53:59;;;;;;;0.20;0.20;;;;;;;;;;20807597;28;20749;-80
2022/01/08 22:04:01;;;;;;;0.40;0.40;;;;;;;;;;20822659;28;20218;-80
2022/01/08 22:14:03;;;;;;;0.20;0.20;;;;;;;;;;20821606;28;20218;-80
2022/01/08 22:24:05;;;;;;;0.40;0.40;;;;;;;;;;20819774;28;20202;-81
2022/01/08 22:34:08;;;;;;;0.70;0.40;;;;;;;;;;20836165;28;20229;-79
2022/01/08 22:44:10;;;;;;;0.33;0.27;;;;;;;;;;20799640;28;20687;-78
2022/01/08 22:54:12;;;;;;;0.20;0.20;;;;;;;;;;20832257;28;20227;-80
2022/01/08 23:04:14;;;;;;;0.30;0.23;;;;;;;;;;20833172;28;20249;-79
2022/01/08 23:14:17;;;;;;;0.13;0.13;;;;;;;;;;20832516;28;20215;-79
2022/01/08 23:24:19;;;;;;;0.10;0.10;;;;;;;;;;20836653;28;20215;-79
2022/01/08 23:34:20;;;;;;;0.20;0.20;;;;;;;;;;20817732;28;20261;-79
2022/01/08 23:44:23;;;;;;;0.10;0.10;;;;;;;;;;20815503;28;20248;-78
2022/01/08 23:54:25;;;;;;;0.10;0.00;;;;;;;;;;20835749;28;20265;-79
